Time;durP1;ratioP1;P1;durP2;ratioP2;P2;SDS_P1;SDS_P2;PMS_P1;PMS_P2;Temp;Humidity;BMP_temperature;BMP_pressure;BME280_temperature;BME280_humidity;BME280_pressure;Samples;Min_cycle;Max_cycle;Signal;HPM_P1;HPM_P2
2023/01/06 00:01:54;;;;;;;9.02;2.33;;;;;;;5.08;100.00;100323.03;5072509;28;20047;-76
2023/01/06 00:04:20;;;;;;;13.85;2.75;;;;;;;5.02;100.00;100334.25;5038853;28;20044;-76
2023/01/06 00:06:46;;;;;;;9.38;1.98;;;;;;;4.99;100.00;100330.06;5039556;28;20044;-76
2023/01/06 00:09:12;;;;;;;8.30;1.92;;;;;;;4.93;100.00;100332.50;5039228;28;20039;-78
2023/01/06 00:11:38;;;;;;;11.20;1.60;;;;;;;4.85;100.00;100339.41;5039165;28;20037;-77
2023/01/06 00:14:04;;;;;;;6.18;1.58;;;;;;;4.67;100.00;100327.06;5039380;28;20037;-77
2023/01/06 00:16:30;;;;;;;11.05;2.20;;;;;;;4.65;100.00;100329.00;5072252;28;20032;-76
2023/01/06 00:18:56;;;;;;;9.68;2.38;;;;;;;4.60;100.00;100343.63;5055407;28;20029;-77
2023/01/06 00:21:22;;;;;;;15.32;3.38;;;;;;;4.52;100.00;100332.84;5072279;28;20028;-77
2023/01/06 00:23:48;;;;;;;16.85;3.03;;;;;;;4.49;100.00;100337.63;5038966;28;20536;-77
2023/01/06 00:26:14;;;;;;;16.33;3.17;;;;;;;4.42;100.00;100337.41;5038920;28;20029;-77
2023/01/06 00:28:40;;;;;;;4.63;1.23;;;;;;;4.42;100.00;100334.75;5039237;28;20363;-77
2023/01/06 00:31:08;;;;;;;15.90;3.08;;;;;;;4.46;100.00;100337.94;5038821;28;20032;-77
2023/01/06 00:33:34;;;;;;;8.63;2.65;;;;;;;4.38;100.00;100326.19;5039121;28;20115;-78
2023/01/06 00:36:00;;;;;;;16.60;2.28;;;;;;;4.37;100.00;100342.31;5055136;28;20373;-76
2023/01/06 00:38:26;;;;;;;11.45;2.45;;;;;;;4.26;100.00;100337.16;5055311;28;20041;-77
2023/01/06 00:40:52;;;;;;;2.95;1.40;;;;;;;4.22;100.00;100336.63;5039079;28;20063;-77
2023/01/06 00:43:17;;;;;;;13.77;2.45;;;;;;;4.29;100.00;100340.38;5055365;28;20466;-77
2023/01/06 00:45:43;;;;;;;8.07;2.03;;;;;;;4.24;100.00;100332.00;5038880;28;20131;-76
2023/01/06 00:48:09;;;;;;;4.97;1.65;;;;;;;4.26;100.00;100334.50;5038877;28;20118;-77
2023/01/06 00:50:34;;;;;;;6.45;2.05;;;;;;;4.23;100.00;100350.75;5038905;28;20032;-77
2023/01/06 00:53:00;;;;;;;10.50;2.35;;;;;;;4.19;100.00;100334.25;5038691;28;20029;-78
2023/01/06 00:55:26;;;;;;;7.53;1.45;;;;;;;4.29;100.00;100347.53;5038787;28;20078;-77
2023/01/06 00:57:52;;;;;;;15.70;2.63;;;;;;;4.50;100.00;100341.97;5056247;28;20386;-77
2023/01/06 01:00:18;;;;;;;8.45;1.90;;;;;;;4.71;100.00;100345.25;5059481;28;20032;-76
2023/01/06 01:02:43;;;;;;;16.95;3.13;;;;;;;4.88;100.00;100340.13;5059382;28;20475;-76
2023/01/06 01:05:09;;;;;;;18.10;2.58;;;;;;;5.07;100.00;100337.31;5059234;28;20032;-77
2023/01/06 01:07:36;;;;;;;13.05;2.03;;;;;;;5.32;100.00;100354.41;5042594;28;20042;-77
2023/01/06 01:10:02;;;;;;;10.93;2.00;;;;;;;5.43;100.00;100350.69;5075430;28;20020;-76
2023/01/06 01:12:27;;;;;;;11.05;2.47;;;;;;;5.54;100.00;100362.94;5059039;28;20135;-77
2023/01/06 01:14:53;;;;;;;3.08;1.48;;;;;;;5.56;100.00;100359.13;5042552;28;20476;-77
2023/01/06 01:17:22;;;;;;;15.13;2.33;;;;;;;5.62;100.00;100355.84;5059151;28;20559;-78
2023/01/06 01:19:49;;;;;;;2.47;1.00;;;;;;;5.51;100.00;100353.41;5075620;28;20032;-76
2023/01/06 01:22:15;;;;;;;15.82;1.70;;;;;;;5.35;100.00;100347.94;5075656;28;20032;-77
2023/01/06 01:24:40;;;;;;;4.80;1.67;;;;;;;5.20;100.00;100348.44;5058902;28;20024;-77
2023/01/06 01:27:06;;;;;;;3.00;1.20;;;;;;;5.01;100.00;100344.09;5058388;28;20032;-76
2023/01/06 01:29:32;;;;;;;5.55;1.10;;;;;;;4.96;100.00;100345.53;5042355;28;20162;-77
2023/01/06 01:31:58;;;;;;;21.08;2.35;;;;;;;4.80;100.00;100343.53;5058295;28;20024;-76
2023/01/06 01:34:24;;;;;;;10.07;1.80;;;;;;;4.60;100.00;100346.28;5042288;28;20464;-77
2023/01/06 01:36:51;;;;;;;11.95;2.78;;;;;;;4.46;100.00;100351.25;5058301;28;20116;-77
2023/01/06 01:39:19;;;;;;;16.20;2.10;;;;;;;4.19;100.00;100350.22;5075163;28;20044;-77
2023/01/06 01:41:46;;;;;;;12.55;1.70;;;;;;;4.10;100.00;100365.25;5058419;28;20032;-77
2023/01/06 01:44:49;;;;;;;6.50;1.75;;;;;;;3.93;100.00;100366.78;5075413;28;20115;-77
2023/01/06 01:47:20;;;;;;;6.78;1.13;;;;;;;3.84;100.00;100366.81;5058456;28;20116;-78
2023/01/06 01:49:48;;;;;;;10.15;2.38;;;;;;;3.66;100.00;100362.22;5075147;28;20039;-77
2023/01/06 01:52:14;;;;;;;4.70;1.50;;;;;;;3.60;100.00;100370.75;5074599;28;20086;-76
2023/01/06 01:54:41;;;;;;;10.10;2.13;;;;;;;3.60;100.00;100378.72;5041829;28;20125;-77
2023/01/06 01:57:17;;;;;;;15.88;2.05;;;;;;;3.71;100.00;100375.09;5058213;28;20031;-76
2023/01/06 01:59:44;;;;;;;7.75;1.30;;;;;;;3.85;100.00;100379.97;5058509;28;20359;-77
2023/01/06 02:02:09;;;;;;;8.48;1.63;;;;;;;4.04;100.00;100384.41;5041659;28;20033;-77
2023/01/06 02:04:37;;;;;;;11.13;1.83;;;;;;;4.13;100.00;100366.78;5041521;28;20047;-77
2023/01/06 02:07:03;;;;;;;9.20;1.50;;;;;;;4.23;100.00;100361.41;5058086;28;20040;-77
2023/01/06 02:09:35;;;;;;;16.17;2.35;;;;;;;4.36;100.00;100360.09;5040165;28;20036;-79
2023/01/06 02:12:01;;;;;;;3.05;1.35;;;;;;;4.56;100.00;100366.19;5057721;28;20394;-76
2023/01/06 02:14:27;;;;;;;3.55;1.30;;;;;;;4.66;100.00;100349.31;5074397;28;20508;-77
2023/01/06 02:17:12;;;;;;;7.70;1.48;;;;;;;4.97;100.00;100363.19;5041747;28;20024;-76
2023/01/06 02:20:08;;;;;;;7.85;1.48;;;;;;;4.97;100.00;100357.84;5074104;28;20025;-77
2023/01/06 02:22:36;;;;;;;7.20;1.60;;;;;;;4.94;100.00;100350.16;5074258;28;20063;-77
2023/01/06 02:25:14;;;;;;;12.25;1.75;;;;;;;5.01;100.00;100364.56;5057795;28;20037;-77
2023/01/06 02:28:17;;;;;;;9.27;1.80;;;;;;;5.05;100.00;100371.25;5074483;28;20043;-76
2023/01/06 02:30:52;;;;;;;3.67;0.93;;;;;;;5.17;100.00;100380.75;5057472;28;20150;-77
2023/01/06 02:33:44;;;;;;;11.50;2.17;;;;;;;5.25;100.00;100377.31;5073934;28;20031;-77
2023/01/06 02:36:31;;;;;;;5.03;1.65;;;;;;;5.39;100.00;100386.63;5045846;28;20043;-77
2023/01/06 02:39:13;;;;;;;10.82;1.67;;;;;;;5.51;100.00;100388.09;5075378;28;20033;-77
2023/01/06 02:41:47;;;;;;;8.88;1.88;;;;;;;5.61;100.00;100396.00;5057273;28;20044;-77
2023/01/06 02:44:15;;;;;;;9.48;1.40;;;;;;;5.70;100.00;100411.09;5057547;28;20056;-77
2023/01/06 02:47:26;;;;;;;4.07;1.52;;;;;;;5.77;100.00;100401.50;5057301;28;20025;-77
2023/01/06 02:50:15;;;;;;;10.45;2.40;;;;;;;5.73;100.00;100389.44;5024079;28;20057;-77
2023/01/06 02:52:45;;;;;;;8.25;1.50;;;;;;;5.66;100.00;100386.56;5057014;28;20187;-77
2023/01/06 02:55:39;;;;;;;11.23;1.88;;;;;;;5.60;100.00;100379.16;5057152;28;20029;-77
2023/01/06 02:58:09;;;;;;;3.63;1.27;;;;;;;5.40;100.00;100366.97;5040555;28;20081;-77
2023/01/06 03:00:40;;;;;;;10.02;1.30;;;;;;;5.18;100.00;100366.41;5057006;28;20043;-77
2023/01/06 03:03:10;;;;;;;15.13;2.45;;;;;;;5.01;100.00;100369.91;5040711;28;20028;-77
2023/01/06 03:05:37;;;;;;;12.30;2.15;;;;;;;4.82;100.00;100369.03;5040355;28;20044;-77
2023/01/06 03:08:08;;;;;;;11.85;1.30;;;;;;;4.72;100.00;100372.72;5040139;28;20390;-76
2023/01/06 03:10:34;;;;;;;8.65;1.30;;;;;;;4.68;100.00;100371.31;5040317;28;20039;-76
2023/01/06 03:13:16;;;;;;;8.20;1.38;;;;;;;4.80;100.00;100376.31;5056541;28;20028;-77
2023/01/06 03:15:42;;;;;;;9.10;1.40;;;;;;;5.02;100.00;100379.56;5040301;28;20116;-77
2023/01/06 03:18:08;;;;;;;7.55;1.08;;;;;;;5.16;100.00;100370.22;5073091;28;20330;-80
2023/01/06 03:20:34;;;;;;;1.15;1.05;;;;;;;5.27;100.00;100368.19;5039795;28;20033;-77
2023/01/06 03:22:59;;;;;;;10.38;1.70;;;;;;;5.40;100.00;100378.47;5056261;28;20035;-77
2023/01/06 03:25:25;;;;;;;7.53;1.52;;;;;;;5.43;100.00;100372.00;5056487;28;20036;-77
2023/01/06 03:27:51;;;;;;;9.95;1.35;;;;;;;5.45;100.00;100378.00;5072894;28;20072;-77
2023/01/06 03:30:19;;;;;;;3.90;1.52;;;;;;;5.44;100.00;100355.00;5056415;28;20108;-76
2023/01/06 03:33:02;;;;;;;7.05;1.58;;;;;;;5.54;100.00;100363.78;5072668;28;20104;-77
2023/01/06 03:35:55;;;;;;;7.68;1.30;;;;;;;5.64;100.00;100348.53;5040010;28;20094;-77
2023/01/06 03:38:24;;;;;;;6.68;1.08;;;;;;;5.75;100.00;100354.63;5056541;28;20033;-77
2023/01/06 03:40:55;;;;;;;7.32;1.70;;;;;;;5.77;100.00;100357.94;5056375;28;20482;-77
2023/01/06 03:43:29;;;;;;;4.07;1.52;;;;;;;5.75;100.00;100355.47;5056319;28;20458;-76
2023/01/06 03:46:20;;;;;;;4.10;1.00;;;;;;;5.70;100.00;100355.06;5072565;28;20125;-79
2023/01/06 03:49:04;;;;;;;3.80;1.63;;;;;;;5.65;100.00;100360.88;5039763;28;20470;-77
2023/01/06 03:51:46;;;;;;;1.95;0.98;;;;;;;5.62;100.00;100358.50;5056154;28;20051;-77
2023/01/06 03:54:31;;;;;;;4.07;0.90;;;;;;;5.67;100.00;100358.88;5072636;28;20078;-77
2023/01/06 03:57:02;;;;;;;6.25;1.08;;;;;;;5.68;100.00;100355.22;5056085;28;20111;-77
2023/01/06 03:59:29;;;;;;;2.33;0.98;;;;;;;5.67;100.00;100337.56;5056228;28;20037;-77
2023/01/06 04:01:56;;;;;;;4.03;0.90;;;;;;;5.65;100.00;100325.38;5056123;28;20051;-77
2023/01/06 04:04:21;;;;;;;1.67;1.10;;;;;;;5.67;100.00;100332.22;5055545;28;20433;-77
2023/01/06 04:06:47;;;;;;;6.20;1.40;;;;;;;5.66;100.00;100335.88;5039056;28;20032;-77
2023/01/06 04:09:13;;;;;;;5.10;1.10;;;;;;;5.57;100.00;100338.63;5039336;28;20530;-77
2023/01/06 04:14:23;;;;;;;1.17;0.63;;;;;;;5.42;100.00;100341.00;5058411;28;20040;-77
2023/01/06 04:16:48;;;;;;;2.55;0.88;;;;;;;5.52;100.00;100339.09;5055966;28;20042;-77
2023/01/06 04:19:14;;;;;;;6.80;1.20;;;;;;;5.55;100.00;100330.78;5039175;28;20047;-81
2023/01/06 04:21:40;;;;;;;2.25;1.10;;;;;;;5.55;100.00;100328.09;5072264;28;20036;-76
2023/01/06 04:24:06;;;;;;;1.70;1.17;;;;;;;5.47;100.00;100326.19;5039355;28;20024;-77
2023/01/06 04:26:32;;;;;;;2.80;0.98;;;;;;;5.39;100.00;100318.13;5039149;28;20402;-77
2023/01/06 04:29:01;;;;;;;4.65;1.75;;;;;;;5.17;100.00;100300.78;5072167;28;20035;-77
2023/01/06 04:31:27;;;;;;;6.60;1.35;;;;;;;5.15;100.00;100313.41;5055315;28;20039;-77
2023/01/06 04:33:53;;;;;;;9.80;1.70;;;;;;;5.06;100.00;100306.34;5058097;28;20032;-76
2023/01/06 04:36:21;;;;;;;3.70;0.80;;;;;;;4.96;100.00;100311.72;5059791;28;20105;-77
2023/01/06 04:38:47;;;;;;;3.97;1.40;;;;;;;4.89;100.00;100307.16;5043204;28;20067;-77
2023/01/06 04:41:13;;;;;;;5.72;1.35;;;;;;;4.82;100.00;100313.09;5075952;28;20037;-77
2023/01/06 04:43:38;;;;;;;2.13;0.80;;;;;;;4.76;100.00;100307.50;5043210;28;20131;-76
2023/01/06 04:46:05;;;;;;;1.95;0.88;;;;;;;4.71;100.00;100313.28;5043042;28;20044;-77
2023/01/06 04:48:30;;;;;;;6.80;1.38;;;;;;;4.50;100.00;100288.72;5043180;28;20032;-77
2023/01/06 04:51:04;;;;;;;4.90;1.20;;;;;;;4.46;100.00;100298.00;5042966;28;20029;-77
2023/01/06 04:53:33;;;;;;;1.98;0.90;;;;;;;4.27;100.00;100301.59;5059195;28;20467;-78
2023/01/06 04:56:07;;;;;;;6.28;1.40;;;;;;;4.14;100.00;100289.44;5076036;28;20028;-77
2023/01/06 04:58:34;;;;;;;7.32;1.27;;;;;;;3.98;100.00;100291.88;5059607;28;20064;-77
2023/01/06 05:01:04;;;;;;;4.47;1.05;;;;;;;3.87;100.00;100287.56;5059346;28;20036;-77
2023/01/06 05:03:30;;;;;;;17.73;1.42;;;;;;;3.90;100.00;100286.44;5059390;28;20528;-77
2023/01/06 05:06:04;;;;;;;5.55;2.10;;;;;;;3.96;100.00;100291.19;5042778;28;20083;-77
2023/01/06 05:08:30;;;;;;;3.25;1.17;;;;;;;3.94;100.00;100278.03;5042831;28;20032;-76
2023/01/06 05:11:05;;;;;;;3.60;1.10;;;;;;;3.96;100.00;100276.06;5058976;28;20478;-77
2023/01/06 05:13:31;;;;;;;5.00;0.98;;;;;;;4.03;100.00;100275.50;5075437;28;20032;-77
2023/01/06 05:15:57;;;;;;;11.30;2.60;;;;;;;4.02;100.00;100261.34;5059054;28;20119;-77
2023/01/06 05:18:22;;;;;;;4.10;1.08;;;;;;;3.96;100.00;100243.31;5042562;28;20124;-77
2023/01/06 05:20:52;;;;;;;1.75;0.73;;;;;;;4.12;100.00;100255.97;5058851;28;20055;-77
2023/01/06 05:23:18;;;;;;;9.52;1.13;;;;;;;4.10;100.00;100245.50;5042380;28;20067;-77
2023/01/06 05:25:44;;;;;;;1.80;0.70;;;;;;;4.10;100.00;100237.53;5058532;28;20032;-77
2023/01/06 05:28:11;;;;;;;2.47;0.95;;;;;;;4.08;100.00;100238.66;5042298;28;20025;-77
2023/01/06 05:30:36;;;;;;;5.72;1.13;;;;;;;4.03;100.00;100232.94;5074940;28;20024;-77
2023/01/06 05:33:02;;;;;;;1.67;0.88;;;;;;;4.02;100.00;100232.06;5041889;28;20428;-77
2023/01/06 05:35:29;;;;;;;3.28;0.85;;;;;;;3.99;100.00;100227.03;5058741;28;20029;-76
2023/01/06 05:37:56;;;;;;;2.03;0.77;;;;;;;3.96;100.00;100230.00;5058476;28;20029;-77
2023/01/06 05:40:21;;;;;;;3.28;0.95;;;;;;;3.87;100.00;100206.97;5041990;28;20116;-77
2023/01/06 05:42:47;;;;;;;4.10;1.00;;;;;;;3.89;100.00;100219.13;5041857;28;20033;-77
2023/01/06 05:45:13;;;;;;;2.17;0.80;;;;;;;3.90;100.00;100222.63;5058172;28;20040;-76
2023/01/06 05:47:39;;;;;;;4.72;0.80;;;;;;;3.94;100.00;100235.50;5041554;28;20497;-77
2023/01/06 05:50:05;;;;;;;0.60;0.60;;;;;;;4.04;100.00;100226.63;5041620;28;20071;-76
2023/01/06 05:52:30;;;;;;;3.72;0.70;;;;;;;4.13;100.00;100226.59;5058249;28;20102;-77
2023/01/06 05:54:56;;;;;;;9.23;1.35;;;;;;;4.16;100.00;100214.81;5041775;28;20029;-76
2023/01/06 05:57:22;;;;;;;1.55;0.90;;;;;;;4.17;100.00;100208.50;5041896;28;20485;-77
2023/01/06 05:59:47;;;;;;;7.00;1.63;;;;;;;4.16;100.00;100201.50;5057852;28;20032;-80
2023/01/06 06:02:13;;;;;;;3.30;0.70;;;;;;;4.14;100.00;100192.81;5041802;28;20035;-77
2023/01/06 06:04:39;;;;;;;1.80;0.80;;;;;;;4.09;100.00;100195.09;5041738;28;20371;-76
2023/01/06 06:07:04;;;;;;;6.05;0.82;;;;;;;4.04;100.00;100210.66;5041516;28;20044;-77
2023/01/06 06:09:30;;;;;;;2.17;1.35;;;;;;;4.04;100.00;100205.34;5041726;28;20085;-77
2023/01/06 06:11:56;;;;;;;4.32;0.90;;;;;;;3.96;100.00;100196.25;5057652;28;20378;-77
2023/01/06 06:14:21;;;;;;;4.55;1.15;;;;;;;4.01;100.00;100205.63;5074660;28;20037;-77
2023/01/06 06:16:47;;;;;;;0.60;0.60;;;;;;;3.98;100.00;100209.41;5041390;28;20098;-77
2023/01/06 06:19:13;;;;;;;2.92;0.77;;;;;;;4.01;100.00;100218.94;5041442;28;20035;-77
2023/01/06 06:21:39;;;;;;;2.40;0.98;;;;;;;4.07;100.00;100221.00;5057917;28;20040;-76
2023/01/06 06:24:05;;;;;;;1.88;0.90;;;;;;;4.16;100.00;100222.78;5057961;28;20107;-77
2023/01/06 06:26:30;;;;;;;2.35;1.20;;;;;;;4.24;100.00;100222.06;5057630;28;20029;-77
2023/01/06 06:28:56;;;;;;;0.60;0.60;;;;;;;4.27;100.00;100219.94;5057679;28;20481;-77
2023/01/06 06:31:24;;;;;;;2.17;1.08;;;;;;;4.33;100.00;100213.16;5040967;28;20071;-77
2023/01/06 06:33:57;;;;;;;4.97;1.00;;;;;;;4.30;100.00;100216.13;5057694;28;20051;-77
2023/01/06 06:36:23;;;;;;;2.40;1.00;;;;;;;4.12;100.00;100200.94;5040850;28;20036;-77
2023/01/06 06:38:50;;;;;;;4.70;1.20;;;;;;;4.15;100.00;100216.63;5073899;28;20112;-77
2023/01/06 06:41:17;;;;;;;1.50;0.60;;;;;;;4.15;100.00;100215.78;5040871;28;20114;-78
2023/01/06 06:43:43;;;;;;;4.75;1.45;;;;;;;4.16;100.00;100214.81;5074249;28;20033;-77
2023/01/06 06:46:09;;;;;;;2.53;1.05;;;;;;;4.15;100.00;100211.31;5056796;28;20429;-76
2023/01/06 06:48:35;;;;;;;5.82;1.00;;;;;;;4.16;100.00;100210.31;5040702;28;20047;-76
2023/01/06 06:51:08;;;;;;;5.82;0.70;;;;;;;4.19;100.00;100209.19;5040591;28;20463;-77
2023/01/06 06:53:34;;;;;;;0.73;0.68;;;;;;;4.19;100.00;100211.84;5057109;28;20402;-76
2023/01/06 06:56:03;;;;;;;1.33;0.90;;;;;;;4.21;100.00;100209.88;5039769;28;20044;-77
2023/01/06 06:58:29;;;;;;;2.67;0.90;;;;;;;4.26;100.00;100214.72;5056751;28;20041;-76
2023/01/06 07:00:55;;;;;;;2.60;0.80;;;;;;;4.31;100.00;100205.34;5040534;28;20094;-76
2023/01/06 07:03:21;;;;;;;4.90;0.80;;;;;;;4.36;100.00;100203.03;5040587;28;20037;-77
2023/01/06 07:05:48;;;;;;;1.65;0.55;;;;;;;4.48;100.00;100205.53;5057077;28;20032;-77
2023/01/06 07:08:14;;;;;;;3.20;0.93;;;;;;;4.67;100.00;100210.72;5073213;28;20071;-76
2023/01/06 07:10:39;;;;;;;1.88;0.77;;;;;;;4.82;100.00;100198.53;5056941;28;20060;-77
2023/01/06 07:13:05;;;;;;;2.45;0.70;;;;;;;4.91;100.00;100191.44;5056632;28;20056;-76
2023/01/06 07:15:31;;;;;;;4.47;0.82;;;;;;;4.83;100.00;100188.72;5056419;28;20028;-77
2023/01/06 07:18:01;;;;;;;3.10;0.77;;;;;;;4.80;100.00;100176.53;5056895;28;20031;-77
2023/01/06 07:20:28;;;;;;;1.30;0.52;;;;;;;4.91;100.00;100187.97;5039911;28;20025;-77
2023/01/06 07:22:57;;;;;;;2.85;0.95;;;;;;;4.97;100.00;100188.16;5056641;28;20024;-76
2023/01/06 07:25:22;;;;;;;4.18;0.82;;;;;;;5.07;100.00;100182.75;5073019;28;20032;-78
2023/01/06 07:27:56;;;;;;;2.10;0.57;;;;;;;5.10;100.00;100187.78;5073175;28;20459;-77
2023/01/06 07:30:23;;;;;;;3.63;1.15;;;;;;;5.16;100.00;100188.97;5039994;28;20071;-77
2023/01/06 07:32:49;;;;;;;5.20;1.08;;;;;;;5.20;100.00;100193.03;5056220;28;20056;-77
2023/01/06 07:35:15;;;;;;;0.60;0.60;;;;;;;5.14;100.00;100194.47;5056399;28;20039;-76
2023/01/06 07:37:41;;;;;;;1.38;0.77;;;;;;;4.90;100.00;100151.66;5056438;28;20086;-76
2023/01/06 07:40:07;;;;;;;4.75;0.60;;;;;;;5.22;100.00;100197.22;5039684;28;20462;-77
2023/01/06 07:42:35;;;;;;;1.05;0.70;;;;;;;5.25;100.00;100204.91;5056306;28;20475;-77
2023/01/06 07:45:01;;;;;;;2.38;0.60;;;;;;;5.19;100.00;100202.84;5039432;28;20087;-77
2023/01/06 07:47:27;;;;;;;1.60;0.80;;;;;;;5.12;100.00;100199.13;5039357;28;20537;-77
2023/01/06 07:49:53;;;;;;;1.52;0.50;;;;;;;5.04;100.00;100183.06;5039585;28;20040;-76
2023/01/06 07:52:18;;;;;;;1.35;0.70;;;;;;;4.99;100.00;100177.38;5055575;28;20111;-76
2023/01/06 07:54:44;;;;;;;2.40;0.90;;;;;;;4.93;100.00;100165.50;5055288;28;20027;-80
2023/01/06 07:57:10;;;;;;;2.75;0.98;;;;;;;4.84;100.00;100166.41;5072370;28;20024;-77
2023/01/06 07:59:35;;;;;;;2.65;1.58;;;;;;;4.82;100.00;100160.41;5055666;28;20021;-78
2023/01/06 08:02:01;;;;;;;5.43;0.60;;;;;;;4.80;100.00;100155.22;5055800;28;20068;-77
2023/01/06 08:04:27;;;;;;;2.15;0.63;;;;;;;4.77;100.00;100152.88;5055443;28;20029;-79
2023/01/06 08:06:54;;;;;;;2.58;0.90;;;;;;;4.73;100.00;100151.50;5039089;28;20123;-78
2023/01/06 08:09:20;;;;;;;2.38;0.95;;;;;;;4.67;100.00;100143.31;5038727;28;20032;-79
2023/01/06 08:11:46;;;;;;;2.63;0.65;;;;;;;4.59;100.00;100138.72;5038891;28;20489;-77
2023/01/06 08:14:11;;;;;;;2.60;1.33;;;;;;;4.55;100.00;100132.03;5039267;28;20072;-77
2023/01/06 08:16:38;;;;;;;6.22;1.10;;;;;;;4.55;100.00;100140.88;5039127;28;20090;-77
2023/01/06 08:19:04;;;;;;;1.38;1.10;;;;;;;4.51;100.00;100112.88;5055398;28;20078;-79
2023/01/06 08:21:30;;;;;;;32.17;12.50;;;;;;;4.52;100.00;100098.56;5055615;28;20068;-76
2023/01/06 08:23:56;;;;;;;33.25;14.35;;;;;;;4.53;100.00;100091.44;5039056;28;20063;-78
2023/01/06 08:26:25;;;;;;;17.17;7.03;;;;;;;4.58;100.00;100105.94;5055704;28;20094;-78
2023/01/06 08:28:52;;;;;;;9.43;3.97;;;;;;;4.61;100.00;100105.63;5039461;28;20055;-81
2023/01/06 08:31:21;;;;;;;12.18;3.53;;;;;;;4.50;100.00;100076.59;5039009;28;20131;-78
2023/01/06 08:33:48;;;;;;;4.43;1.27;;;;;;;4.62;100.00;100090.50;5071612;28;20108;-77
2023/01/06 08:36:16;;;;;;;3.28;1.00;;;;;;;4.65;100.00;100090.19;5054652;28;20024;-77
2023/01/06 08:38:42;;;;;;;5.10;1.10;;;;;;;4.83;100.00;100091.00;5038571;28;20128;-78
2023/01/06 08:41:08;;;;;;;4.15;1.17;;;;;;;4.92;100.00;100099.03;5055272;28;20032;-78
2023/01/06 08:43:37;;;;;;;6.07;1.50;;;;;;;4.96;100.00;100095.91;5055136;28;20044;-78
2023/01/06 08:46:05;;;;;;;4.50;1.38;;;;;;;4.98;100.00;100099.28;5055293;28;20040;-78
2023/01/06 08:48:32;;;;;;;4.10;1.15;;;;;;;4.99;100.00;100108.09;5071470;28;20178;-77
2023/01/06 08:51:18;;;;;;;4.80;2.20;;;;;;;4.89;100.00;100088.72;5038708;28;20040;-77
2023/01/06 08:53:44;;;;;;;10.38;4.30;;;;;;;4.99;100.00;100094.78;5038582;28;20025;-78
2023/01/06 08:56:18;;;;;;;10.10;3.25;;;;;;;5.05;100.00;100103.00;5038473;28;20039;-80
2023/01/06 08:58:44;;;;;;;10.90;3.38;;;;;;;5.03;100.00;100082.81;5038902;28;20021;-77
2023/01/06 09:01:22;;;;;;;10.05;1.73;;;;;;;5.12;100.00;100095.19;5071570;28;20028;-80
2023/01/06 09:03:48;;;;;;;10.77;2.97;;;;;;;5.15;100.00;100099.38;5055092;28;20048;-77
2023/01/06 09:06:14;;;;;;;5.93;2.45;;;;;;;5.15;100.00;100091.38;5055442;28;20467;-77
2023/01/06 09:08:39;;;;;;;24.17;7.03;;;;;;;5.04;100.00;100087.16;5055262;28;20033;-78
2023/01/06 09:11:10;;;;;;;19.80;4.35;;;;;;;5.02;100.00;100089.97;5038859;28;20415;-76
2023/01/06 09:13:36;;;;;;;18.20;5.70;;;;;;;5.09;100.00;100092.03;5038883;28;20036;-78
2023/01/06 09:16:09;;;;;;;8.63;4.57;;;;;;;5.18;100.00;100101.72;5055099;28;20036;-79
2023/01/06 09:18:35;;;;;;;3.88;1.50;;;;;;;5.26;100.00;100089.28;5055838;28;20052;-78
2023/01/06 09:21:01;;;;;;;15.23;6.90;;;;;;;5.40;100.00;100087.88;5043471;28;20466;-77
2023/01/06 09:23:27;;;;;;;9.13;4.43;;;;;;;5.58;100.00;100101.09;5059012;28;20500;-82
2023/01/06 09:25:57;;;;;;;10.23;4.72;;;;;;;5.66;100.00;100092.31;5058973;28;20028;-77
2023/01/06 09:28:24;;;;;;;15.05;5.82;;;;;;;5.69;100.00;100074.16;5075122;28;20033;-78
2023/01/06 09:30:50;;;;;;;12.30;4.32;;;;;;;5.86;100.00;100088.38;5075128;28;20466;-80
2023/01/06 09:33:16;;;;;;;9.65;4.20;;;;;;;5.92;100.00;100090.41;5058347;28;20079;-77
2023/01/06 09:35:45;;;;;;;17.40;6.97;;;;;;;6.00;100.00;100089.63;5042046;28;20032;-75
2023/01/06 09:38:12;;;;;;;18.48;8.65;;;;;;;6.07;100.00;100087.97;5041674;28;20044;-76
2023/01/06 09:40:53;;;;;;;6.15;3.33;;;;;;;6.10;100.00;100082.31;5074331;28;20037;-77
2023/01/06 09:43:25;;;;;;;10.65;5.22;;;;;;;5.99;100.00;100057.78;5074694;28;20063;-80
2023/01/06 09:45:54;;;;;;;3.60;2.05;;;;;;;6.05;100.00;100075.81;5041451;28;20467;-81
2023/01/06 09:48:24;;;;;;;8.25;2.20;;;;;;;6.10;100.00;100068.13;5057715;28;20064;-80
2023/01/06 09:50:53;;;;;;;3.88;1.50;;;;;;;6.30;100.00;100066.84;5041348;28;20548;-80
2023/01/06 09:53:21;;;;;;;6.15;1.67;;;;;;;6.39;100.00;100036.47;5057501;28;20021;-79
2023/01/06 09:55:51;;;;;;;3.72;1.60;;;;;;;6.68;100.00;100051.16;5040812;28;20474;-79
2023/01/06 09:58:21;;;;;;;7.82;1.90;;;;;;;6.77;100.00;100046.63;5058441;28;20029;-80
2023/01/06 10:00:48;;;;;;;5.85;1.70;;;;;;;6.86;100.00;100040.28;5042058;28;20101;-80
2023/01/06 10:03:22;;;;;;;9.07;1.65;;;;;;;6.89;100.00;100037.28;5058315;28;20032;-78
2023/01/06 10:05:50;;;;;;;;;;;;;;;7.02;100.00;100040.25;5058307;28;20084;-79
2023/01/06 10:08:23;;;;;;;10.50;3.05;;;;;;;7.05;100.00;100034.56;5058199;28;19969;-80
2023/01/06 10:11:09;;;;;;;5.38;2.08;;;;;;;7.05;100.00;100020.38;5074630;28;20517;-80
2023/01/06 10:14:09;;;;;;;5.72;1.35;;;;;;;7.08;100.00;100014.69;5074866;28;20044;-81
2023/01/06 10:17:04;;;;;;;3.42;0.95;;;;;;;7.19;100.00;100026.84;5074853;28;20215;-80
2023/01/06 10:20:04;;;;;;;2.60;1.10;;;;;;;7.31;100.00;100019.31;5066504;28;20123;-78
2023/01/06 10:22:48;;;;;;;3.95;1.48;;;;;;;7.45;100.00;100022.06;5057785;28;20368;-81
2023/01/06 10:25:18;;;;;;;3.53;0.90;;;;;;;7.55;100.00;100005.00;5075687;28;20028;-80
2023/01/06 10:28:11;;;;;;;4.53;1.10;;;;;;;7.74;100.00;100007.22;5074419;28;20093;-81
2023/01/06 10:30:41;;;;;;;9.95;1.42;;;;;;;7.86;100.00;99994.28;5040292;28;20025;-79
2023/01/06 10:33:20;;;;;;;19.75;5.32;;;;;;;7.96;100.00;99994.88;5040933;28;20497;-79
2023/01/06 10:35:46;;;;;;;10.35;2.72;;;;;;;8.08;100.00;99992.63;5057858;28;20068;-79
2023/01/06 10:38:12;;;;;;;9.52;3.83;;;;;;;8.04;100.00;99980.59;5057593;28;20407;-79
2023/01/06 10:40:38;;;;;;;15.20;10.00;;;;;;;8.06;100.00;99990.13;5057585;28;20037;-79
2023/01/06 10:43:07;;;;;;;18.27;9.77;;;;;;;8.10;100.00;99972.69;5057011;28;20043;-79
2023/01/06 10:45:39;;;;;;;16.88;6.40;;;;;;;8.22;100.00;99972.25;5057223;28;20037;-79
2023/01/06 10:48:09;;;;;;;9.18;3.55;;;;;;;8.27;100.00;99968.03;5075130;28;20038;-76
2023/01/06 10:50:35;;;;;;;10.45;4.70;;;;;;;8.32;100.00;99962.97;5040708;28;20554;-79
2023/01/06 10:53:02;;;;;;;8.13;2.45;;;;;;;8.30;100.00;99951.59;5040459;28;20028;-79
2023/01/06 10:55:46;;;;;;;3.58;1.52;;;;;;;8.47;100.00;99956.88;5040566;28;20039;-79
2023/01/06 10:58:34;;;;;;;3.53;1.77;;;;;;;8.53;100.00;99961.47;5075045;28;20056;-79
2023/01/06 11:01:14;;;;;;;2.08;1.00;;;;;;;8.67;100.00;99954.47;5073596;28;20052;-79
2023/01/06 11:03:44;;;;;;;2.47;1.05;;;;;;;8.76;100.00;99945.34;5057146;28;20405;-79
2023/01/06 11:06:27;;;;;;;5.50;1.45;;;;;;;8.75;100.00;99933.78;5057781;28;20031;-79
2023/01/06 11:08:53;;;;;;;;;;;;;;;9.00;100.00;99947.75;5057154;28;20035;-79
2023/01/06 11:11:19;;;;;;;3.85;1.13;;;;;;;9.11;100.00;99930.34;5056678;28;19912;-79
2023/01/06 11:13:46;;;;;;;5.63;1.50;;;;;;;9.31;100.00;99935.94;5056729;28;20382;-79
2023/01/06 11:16:29;;;;;;;2.83;0.88;;;;;;;9.63;100.00;99923.09;5040298;28;20036;-79
2023/01/06 11:19:17;;;;;;;;;;;;;;;9.88;100.00;99921.72;5057173;28;20055;-79
2023/01/06 11:21:45;;;;;;;4.93;1.17;;;;;;;9.85;100.00;99908.69;5073421;28;19915;-78
2023/01/06 11:24:22;;;;;;;7.35;1.77;;;;;;;9.87;100.00;99908.47;5056867;28;20111;-79
2023/01/06 11:26:57;;;;;;;6.88;2.63;;;;;;;9.89;100.00;99906.44;5072747;28;20033;-78
2023/01/06 11:29:30;;;;;;;8.85;1.70;;;;;;;10.06;100.00;99885.53;5072873;28;20032;-77
2023/01/06 11:32:17;;;;;;;4.72;1.20;;;;;;;9.99;100.00;99876.59;5039863;28;20039;-76
2023/01/06 11:34:51;;;;;;;3.22;1.13;;;;;;;9.93;100.00;99877.38;5055797;28;20043;-76
2023/01/06 11:37:28;;;;;;;;;;;;;;;10.16;100.00;99875.28;5073358;28;20612;-77
2023/01/06 11:39:54;;;;;;;2.72;1.38;;;;;;;10.85;100.00;99853.00;5054532;28;20002;-77